createdAt,value
2023-02-01T00:02:58.901Z,100.00
2023-02-01T00:08:00.451Z,100.00
2023-02-01T00:13:02.008Z,100.00
2023-02-01T00:18:03.614Z,100.00
2023-02-01T00:23:05.158Z,100.00
2023-02-01T00:28:06.694Z,100.00
2023-02-01T00:33:08.231Z,100.00
2023-02-01T00:38:09.779Z,100.00
2023-02-01T00:43:11.821Z,100.00
2023-02-01T00:48:13.896Z,99.76
2023-02-01T00:53:15.468Z,100.00
2023-02-01T00:58:17.000Z,100.00
2023-02-01T01:03:18.710Z,100.00
2023-02-01T01:08:22.429Z,100.00
2023-02-01T01:13:24.119Z,100.00
2023-02-01T01:18:25.702Z,100.00
2023-02-01T01:23:28.451Z,100.00
2023-02-01T01:28:30.071Z,100.00
2023-02-01T01:33:31.793Z,99.93
2023-02-01T01:38:33.435Z,100.00
2023-02-01T01:44:06.932Z,100.00
2023-02-01T01:49:13.990Z,100.00
2023-02-01T01:54:22.459Z,99.75
2023-02-01T01:59:25.199Z,100.00
2023-02-01T02:04:26.930Z,100.00
2023-02-01T02:09:28.647Z,100.00
2023-02-01T02:14:31.405Z,100.00
2023-02-01T02:19:50.130Z,100.00
2023-02-01T02:25:24.495Z,100.00
2023-02-01T02:31:05.263Z,100.00
2023-02-01T02:36:37.935Z,100.00
2023-02-01T02:42:15.743Z,100.00
2023-02-01T02:47:28.715Z,100.00
2023-02-01T02:52:49.946Z,100.00
2023-02-01T02:58:10.482Z,100.00
2023-02-01T03:03:30.871Z,100.00
2023-02-01T03:08:33.333Z,100.00
2023-02-01T03:13:54.125Z,100.00
2023-02-01T03:19:00.785Z,100.00
2023-02-01T03:24:10.489Z,100.00
2023-02-01T03:29:17.633Z,100.00
2023-02-01T03:34:19.495Z,100.00
2023-02-01T03:39:30.193Z,100.00
2023-02-01T03:44:56.852Z,100.00
2023-02-01T03:50:26.424Z,100.00
2023-02-01T03:55:29.373Z,100.00
2023-02-01T04:00:31.391Z,100.00
2023-02-01T04:05:34.129Z,100.00
2023-02-01T04:10:39.070Z,100.00
2023-02-01T04:15:40.678Z,100.00
2023-02-01T04:20:43.682Z,100.00
2023-02-01T04:25:45.281Z,100.00
2023-02-01T04:30:47.366Z,100.00
2023-02-01T04:35:49.088Z,100.00
2023-02-01T04:40:50.781Z,100.00
2023-02-01T04:45:52.797Z,100.00
2023-02-01T04:50:54.577Z,100.00
2023-02-01T04:55:56.850Z,100.00
2023-02-01T05:00:58.520Z,100.00
2023-02-01T05:06:01.243Z,100.00
2023-02-01T05:11:05.790Z,100.00
2023-02-01T05:16:07.759Z,100.00
2023-02-01T05:21:09.559Z,100.00
2023-02-01T05:26:11.099Z,100.00
2023-02-01T05:31:12.804Z,100.00
2023-02-01T05:36:14.531Z,100.00
2023-02-01T05:41:16.089Z,100.00
2023-02-01T05:46:18.848Z,100.00
2023-02-01T05:51:22.868Z,100.00
2023-02-01T05:56:24.439Z,100.00
2023-02-01T06:01:26.437Z,100.00
2023-02-01T06:06:28.427Z,100.00
2023-02-01T06:11:32.618Z,100.00
2023-02-01T06:16:34.951Z,100.00
2023-02-01T06:21:37.584Z,100.00
2023-02-01T06:26:41.192Z,100.00
2023-02-01T06:31:43.978Z,100.00
2023-02-01T06:36:45.891Z,100.00
2023-02-01T06:41:48.954Z,100.00
2023-02-01T06:46:50.850Z,100.00
2023-02-01T06:51:52.735Z,100.00
2023-02-01T06:56:54.599Z,100.00
2023-02-01T07:01:56.445Z,100.00
2023-02-01T07:06:58.047Z,100.00
2023-02-01T07:11:59.850Z,100.00
2023-02-01T07:17:01.647Z,100.00
2023-02-01T07:22:03.275Z,100.00
2023-02-01T07:27:05.016Z,100.00
2023-02-01T07:32:06.569Z,100.00
2023-02-01T07:37:08.228Z,100.00
2023-02-01T07:42:09.765Z,100.00
2023-02-01T07:47:11.509Z,100.00
2023-02-01T07:52:16.721Z,100.00
2023-02-01T07:57:18.328Z,100.00
2023-02-01T08:02:19.937Z,100.00
2023-02-01T08:07:21.676Z,100.00
2023-02-01T08:12:23.983Z,100.00
2023-02-01T08:17:32.247Z,100.00
2023-02-01T08:22:34.088Z,100.00
2023-02-01T08:27:35.949Z,100.00
2023-02-01T08:32:38.406Z,100.00
2023-02-01T08:37:40.094Z,100.00
2023-02-01T08:42:53.841Z,100.00
2023-02-01T08:47:55.813Z,100.00
2023-02-01T08:52:57.383Z,100.00
2023-02-01T08:57:58.959Z,100.00
2023-02-01T09:03:00.534Z,100.00
2023-02-01T09:08:02.255Z,100.00
2023-02-01T09:13:04.190Z,100.00
2023-02-01T09:18:06.009Z,100.00
2023-02-01T09:23:09.653Z,100.00
2023-02-01T09:28:11.863Z,100.00
2023-02-01T09:33:13.806Z,100.00
2023-02-01T09:38:15.412Z,100.00
2023-02-01T09:43:41.419Z,100.00
2023-02-01T09:48:46.077Z,100.00
2023-02-01T09:53:57.045Z,100.00
2023-02-01T09:59:27.501Z,100.00
2023-02-01T10:04:29.118Z,98.93
2023-02-01T10:10:00.135Z,99.63
2023-02-01T10:15:22.936Z,99.13
2023-02-01T10:20:32.531Z,97.13
2023-02-01T10:25:52.231Z,96.73
2023-02-01T10:30:57.912Z,96.73
2023-02-01T10:36:14.555Z,96.30
2023-02-01T10:41:19.065Z,95.02
2023-02-01T10:46:21.554Z,94.42
2023-02-01T10:51:29.857Z,94.55
2023-02-01T10:56:32.468Z,95.52
2023-02-01T11:01:48.714Z,94.41
2023-02-01T11:06:55.653Z,94.29
2023-02-01T11:12:01.085Z,92.82
2023-02-01T11:17:13.470Z,91.98
2023-02-01T11:22:15.743Z,93.00
2023-02-01T11:27:27.706Z,92.79
2023-02-01T11:32:29.931Z,93.59
2023-02-01T11:37:37.214Z,93.35
2023-02-01T11:43:09.673Z,93.57
2023-02-01T11:48:26.212Z,93.22
2023-02-01T11:54:02.513Z,91.99
2023-02-01T11:59:56.779Z,92.54
2023-02-01T12:05:14.500Z,93.15
2023-02-01T12:10:34.873Z,91.98
2023-02-01T12:15:48.369Z,91.56
2023-02-01T12:21:17.200Z,91.21
2023-02-01T12:26:49.287Z,92.19
2023-02-01T12:31:50.864Z,95.45
2023-02-01T12:37:18.120Z,98.02
2023-02-01T12:42:27.337Z,100.00
2023-02-01T12:47:36.847Z,99.98
2023-02-01T12:52:52.566Z,99.98
2023-02-01T12:58:28.899Z,100.00
2023-02-01T13:03:51.189Z,100.00
2023-02-01T13:09:24.482Z,99.51
2023-02-01T13:14:50.913Z,98.84
2023-02-01T13:20:16.350Z,98.00
2023-02-01T13:25:25.803Z,98.45
2023-02-01T13:30:38.553Z,98.77
2023-02-01T13:35:50.513Z,98.14
2023-02-01T13:41:06.956Z,97.47
2023-02-01T13:46:11.092Z,97.63
2023-02-01T13:51:14.527Z,98.42
2023-02-01T13:56:21.929Z,96.71
2023-02-01T14:01:23.548Z,96.28
2023-02-01T14:06:31.096Z,95.40
2023-02-01T14:11:36.833Z,94.83
2023-02-01T14:16:38.492Z,93.68
2023-02-01T14:21:59.877Z,93.68
2023-02-01T14:27:23.603Z,92.32
2023-02-01T14:32:27.894Z,93.05
2023-02-01T14:37:36.530Z,91.08
2023-02-01T14:42:45.557Z,90.77
2023-02-01T14:47:52.350Z,89.79
2023-02-01T14:53:14.447Z,90.10
2023-02-01T14:58:44.284Z,89.02
2023-02-01T15:03:48.875Z,89.27
2023-02-01T15:08:55.787Z,88.90
2023-02-01T15:13:58.224Z,89.07
2023-02-01T15:19:11.222Z,88.98
2023-02-01T15:24:22.064Z,87.17
2023-02-01T15:29:28.563Z,87.02
2023-02-01T15:34:50.257Z,85.87
2023-02-01T15:40:23.021Z,86.65
2023-02-01T15:45:30.711Z,86.90
2023-02-01T15:50:34.276Z,86.03
2023-02-01T15:55:45.210Z,86.03
2023-02-01T16:00:59.035Z,87.03
2023-02-01T16:06:02.708Z,87.10
2023-02-01T16:11:10.341Z,86.80
2023-02-01T16:16:14.933Z,87.09
2023-02-01T16:21:16.624Z,88.05
2023-02-01T16:26:18.507Z,87.38
2023-02-01T16:31:25.746Z,86.44
2023-02-01T16:36:28.869Z,86.70
2023-02-01T16:41:30.794Z,86.64
2023-02-01T16:46:36.573Z,87.04
2023-02-01T16:51:41.526Z,86.85
2023-02-01T16:56:45.017Z,86.29
2023-02-01T17:01:46.765Z,87.40
2023-02-01T17:06:49.861Z,86.82
2023-02-01T17:11:51.384Z,87.21
2023-02-01T17:16:53.625Z,87.35
2023-02-01T17:21:59.430Z,87.85
2023-02-01T17:27:01.146Z,88.07
2023-02-01T17:32:05.507Z,88.15
2023-02-01T17:37:22.761Z,88.88
2023-02-01T17:42:26.260Z,89.44
2023-02-01T17:47:28.026Z,89.82
2023-02-01T17:52:29.834Z,89.21
2023-02-01T17:57:31.346Z,89.27
2023-02-01T18:02:32.950Z,89.59
2023-02-01T18:07:34.500Z,89.11
2023-02-01T18:12:37.829Z,88.99
2023-02-01T18:17:39.671Z,89.28
2023-02-01T18:22:41.796Z,88.26
2023-02-01T18:27:43.621Z,88.06
2023-02-01T18:32:47.187Z,87.96
2023-02-01T18:37:49.995Z,86.98
2023-02-01T18:42:51.915Z,86.64
2023-02-01T18:47:53.834Z,86.62
2023-02-01T18:52:57.522Z,86.85
2023-02-01T18:58:06.571Z,86.13
2023-02-01T19:03:08.255Z,85.45
2023-02-01T19:08:09.900Z,86.43
2023-02-01T19:13:15.835Z,86.13
2023-02-01T19:18:20.240Z,87.36
2023-02-01T19:23:22.125Z,87.43
2023-02-01T19:28:23.784Z,87.38
2023-02-01T19:33:25.344Z,87.74
2023-02-01T19:38:27.080Z,86.78
2023-02-01T19:43:28.860Z,87.00
2023-02-01T19:48:31.511Z,87.85
2023-02-01T19:53:33.356Z,86.79
2023-02-01T19:58:35.217Z,87.08
2023-02-01T20:03:35.927Z,87.38
2023-02-01T20:08:37.508Z,87.12
2023-02-01T20:13:39.101Z,86.59
2023-02-01T20:18:43.058Z,86.81
2023-02-01T20:23:47.774Z,86.71
2023-02-01T20:28:50.398Z,86.50
2023-02-01T20:33:52.847Z,87.16
2023-02-01T20:38:55.385Z,86.64
2023-02-01T20:43:57.494Z,87.08
2023-02-01T20:48:59.055Z,86.68
2023-02-01T20:54:00.666Z,86.58
2023-02-01T20:59:10.778Z,87.57
2023-02-01T21:04:12.339Z,87.58
2023-02-01T21:09:14.306Z,87.47
2023-02-01T21:14:15.881Z,87.65
2023-02-01T21:19:17.906Z,87.30
2023-02-01T21:24:20.055Z,86.79
2023-02-01T21:29:21.581Z,87.07
2023-02-01T21:34:23.103Z,87.27
2023-02-01T21:39:24.825Z,87.44
2023-02-01T21:44:26.377Z,88.32
2023-02-01T21:49:29.019Z,89.81
2023-02-01T21:54:31.275Z,90.35
2023-02-01T21:59:32.810Z,91.24
2023-02-01T22:04:34.359Z,90.99
2023-02-01T22:09:35.985Z,91.35
2023-02-01T22:14:37.541Z,91.00
2023-02-01T22:19:40.682Z,91.09
2023-02-01T22:24:44.613Z,90.88
2023-02-01T22:29:46.131Z,90.98
2023-02-01T22:34:49.845Z,90.37
2023-02-01T22:39:51.402Z,92.78
2023-02-01T22:44:52.923Z,95.13
2023-02-01T22:49:54.491Z,96.57
2023-02-01T22:54:56.076Z,96.27
2023-02-01T22:59:57.703Z,95.88
2023-02-01T23:04:59.322Z,95.12
2023-02-01T23:10:01.759Z,96.09
2023-02-01T23:15:06.262Z,96.46
2023-02-01T23:20:14.309Z,96.06
2023-02-01T23:25:17.974Z,96.34
2023-02-01T23:30:19.684Z,96.41
2023-02-01T23:35:21.495Z,96.12
2023-02-01T23:40:23.160Z,95.41
2023-02-01T23:45:24.896Z,96.21
2023-02-01T23:50:26.661Z,96.26
2023-02-01T23:55:28.747Z,96.25
